createdAt,value
2019-05-18T00:02:30.085Z,49.70
2019-05-18T00:05:00.342Z,49.90
2019-05-18T00:07:30.568Z,49.90
2019-05-18T00:10:00.830Z,49.90
2019-05-18T00:12:31.091Z,50.00
2019-05-18T00:15:01.371Z,50.00
2019-05-18T00:17:31.759Z,50.00
2019-05-18T00:20:01.960Z,49.90
2019-05-18T00:22:32.206Z,50.00
2019-05-18T00:25:02.440Z,50.00
2019-05-18T00:27:33.130Z,50.00
2019-05-18T00:30:04.590Z,50.10
2019-05-18T00:32:35.276Z,50.00
2019-05-18T00:35:07.606Z,50.20
2019-05-18T00:37:37.925Z,50.10
2019-05-18T00:40:08.272Z,50.10
2019-05-18T00:42:38.585Z,50.30
2019-05-18T00:45:11.397Z,50.40
2019-05-18T00:47:42.747Z,50.40
2019-05-18T00:50:19.629Z,50.40
2019-05-18T00:52:54.558Z,50.50
2019-05-18T00:55:27.139Z,50.50
2019-05-18T00:58:01.243Z,50.60
2019-05-18T01:00:35.702Z,50.50
2019-05-18T01:03:16.234Z,50.60
2019-05-18T01:05:48.917Z,50.60
2019-05-18T01:08:21.595Z,50.60
2019-05-18T01:11:01.980Z,50.90
2019-05-18T01:13:37.508Z,50.80
2019-05-18T01:16:12.320Z,50.90
2019-05-18T01:18:45.410Z,50.90
2019-05-18T01:21:16.450Z,51.00
2019-05-18T01:23:50.275Z,51.10
2019-05-18T01:26:24.063Z,51.00
2019-05-18T01:29:09.376Z,51.20
2019-05-18T01:31:40.174Z,51.30
2019-05-18T01:34:11.433Z,51.30
2019-05-18T01:36:46.985Z,51.20
2019-05-18T01:39:18.333Z,51.40
2019-05-18T01:41:52.448Z,51.40
2019-05-18T01:44:32.499Z,51.50
2019-05-18T01:47:07.125Z,51.40
2019-05-18T01:49:40.114Z,51.40
2019-05-18T01:52:14.329Z,51.40
2019-05-18T01:54:48.443Z,51.50
2019-05-18T01:57:19.483Z,51.50
2019-05-18T01:59:50.730Z,51.60
2019-05-18T02:02:21.873Z,51.60
2019-05-18T02:04:53.115Z,51.60
2019-05-18T02:07:24.259Z,51.60
2019-05-18T02:09:55.510Z,51.60
2019-05-18T02:12:26.547Z,51.60
2019-05-18T02:14:57.695Z,51.70
2019-05-18T02:17:28.839Z,51.80
2019-05-18T02:20:00.067Z,51.70
2019-05-18T02:22:31.105Z,51.80
2019-05-18T02:25:03.496Z,51.80
2019-05-18T02:27:38.021Z,51.90
2019-05-18T02:30:08.759Z,52.00
2019-05-18T02:32:39.882Z,52.10
2019-05-18T02:35:11.143Z,52.10
2019-05-18T02:37:42.497Z,52.10
2019-05-18T02:40:13.944Z,52.20
2019-05-18T02:42:50.004Z,52.10
2019-05-18T02:45:21.458Z,52.10
2019-05-18T02:47:55.767Z,52.20
2019-05-18T02:50:31.936Z,52.30
2019-05-18T02:53:02.819Z,52.20
2019-05-18T02:55:40.956Z,52.20
2019-05-18T02:58:09.574Z,52.30
2019-05-18T03:00:43.474Z,52.20
2019-05-18T03:03:18.716Z,52.30
2019-05-18T03:05:54.162Z,52.40
2019-05-18T03:08:26.125Z,52.30
2019-05-18T03:11:11.911Z,52.30
2019-05-18T03:13:47.147Z,52.30
2019-05-18T03:16:18.196Z,52.40
2019-05-18T03:19:06.783Z,52.40
2019-05-18T03:21:21.911Z,52.50
2019-05-18T03:23:53.162Z,52.60
2019-05-18T03:26:41.231Z,52.60
2019-05-18T03:29:23.781Z,52.70
2019-05-18T03:31:56.495Z,52.70
2019-05-18T03:34:30.297Z,52.70
2019-05-18T03:37:01.547Z,52.80
2019-05-18T03:39:35.629Z,52.90
2019-05-18T03:42:13.678Z,52.80
2019-05-18T03:44:44.790Z,53.00
2019-05-18T03:47:27.828Z,52.90
2019-05-18T03:50:04.611Z,52.90
2019-05-18T03:52:35.951Z,52.90
2019-05-18T03:55:10.072Z,53.20
2019-05-18T03:57:44.078Z,53.20
2019-05-18T04:00:15.226Z,53.20
2019-05-18T04:02:52.722Z,53.20
2019-05-18T04:05:34.409Z,53.30
2019-05-18T04:08:08.010Z,53.40
2019-05-18T04:10:38.407Z,53.50
2019-05-18T04:13:08.671Z,53.00
2019-05-18T04:15:38.890Z,53.50
2019-05-18T04:18:09.232Z,53.50
2019-05-18T04:20:39.450Z,53.40
2019-05-18T04:23:09.653Z,53.50
2019-05-18T04:25:43.572Z,53.50
2019-05-18T04:28:11.849Z,53.60
2019-05-18T04:30:42.114Z,53.70
2019-05-18T04:33:12.334Z,53.70
2019-05-18T04:35:42.525Z,54.50
2019-05-18T04:38:12.746Z,53.70
2019-05-18T04:40:42.953Z,53.80
2019-05-18T04:43:13.192Z,53.90
2019-05-18T04:45:43.403Z,53.90
2019-05-18T04:48:13.621Z,54.00
2019-05-18T04:50:43.823Z,54.10
2019-05-18T04:53:14.123Z,54.10
2019-05-18T04:55:44.306Z,54.20
2019-05-18T04:58:15.596Z,54.20
2019-05-18T05:00:46.017Z,54.30
2019-05-18T05:03:16.278Z,54.30
2019-05-18T05:05:46.479Z,54.40
2019-05-18T05:08:17.330Z,54.40
2019-05-18T05:10:47.511Z,54.40
2019-05-18T05:13:17.716Z,54.40
2019-05-18T05:15:47.902Z,54.50
2019-05-18T05:18:18.130Z,54.60
2019-05-18T05:20:48.321Z,54.70
2019-05-18T05:23:18.548Z,54.70
2019-05-18T05:25:48.745Z,54.70
2019-05-18T05:28:18.969Z,54.70
2019-05-18T05:30:49.177Z,54.70
2019-05-18T05:33:19.412Z,54.80
2019-05-18T05:35:49.604Z,54.70
2019-05-18T05:38:19.845Z,54.70
2019-05-18T05:40:50.065Z,54.70
2019-05-18T05:43:20.283Z,54.80
2019-05-18T05:45:50.508Z,54.70
2019-05-18T05:48:20.739Z,54.80
2019-05-18T05:50:51.014Z,54.80
2019-05-18T05:53:21.210Z,54.80
2019-05-18T05:55:51.404Z,54.80
2019-05-18T05:58:21.596Z,54.80
2019-05-18T06:00:51.829Z,55.00
2019-05-18T06:03:22.313Z,55.00
2019-05-18T06:05:52.592Z,55.00
2019-05-18T06:08:22.814Z,55.00
2019-05-18T06:10:53.003Z,55.30
2019-05-18T06:13:23.232Z,55.30
2019-05-18T06:15:53.419Z,55.50
2019-05-18T06:18:23.639Z,55.50
2019-05-18T06:20:53.829Z,55.50
2019-05-18T06:23:24.062Z,55.50
2019-05-18T06:25:54.284Z,55.60
2019-05-18T06:28:24.586Z,55.70
2019-05-18T06:30:54.784Z,55.70
2019-05-18T06:33:24.987Z,55.70
2019-05-18T06:35:55.234Z,55.70
2019-05-18T06:38:25.437Z,55.90
2019-05-18T06:40:55.763Z,55.90
2019-05-18T06:43:25.990Z,55.90
2019-05-18T06:45:56.226Z,56.00
2019-05-18T06:48:26.419Z,56.00
2019-05-18T06:51:06.686Z,56.00
2019-05-18T06:53:28.634Z,55.90
2019-05-18T06:55:58.840Z,55.90
2019-05-18T06:58:29.044Z,55.90
2019-05-18T07:00:59.329Z,55.70
2019-05-18T07:03:29.579Z,55.80
2019-05-18T07:05:59.862Z,56.30
2019-05-18T07:08:30.110Z,55.80
2019-05-18T07:11:00.329Z,55.70
2019-05-18T07:13:30.835Z,55.90
2019-05-18T07:16:01.130Z,55.90
2019-05-18T07:18:31.398Z,56.10
2019-05-18T07:21:01.700Z,56.10
2019-05-18T07:23:31.884Z,56.50
2019-05-18T07:26:02.117Z,56.30
2019-05-18T07:28:32.469Z,56.40
2019-05-18T07:31:02.728Z,56.50
2019-05-18T07:33:32.984Z,56.50
2019-05-18T07:36:03.199Z,56.50
2019-05-18T07:38:33.397Z,56.60
2019-05-18T07:41:03.645Z,56.70
2019-05-18T07:43:33.840Z,56.60
2019-05-18T07:46:04.142Z,57.30
2019-05-18T07:48:34.428Z,56.80
2019-05-18T07:51:04.705Z,57.00
2019-05-18T07:53:35.007Z,56.90
2019-05-18T07:56:05.315Z,56.70
2019-05-18T07:58:35.697Z,56.80
2019-05-18T08:01:05.963Z,56.80
2019-05-18T08:03:36.193Z,57.30
2019-05-18T08:06:06.394Z,56.90
2019-05-18T08:08:36.611Z,56.80
2019-05-18T08:11:06.822Z,56.70
2019-05-18T08:13:37.054Z,56.60
2019-05-18T08:16:07.261Z,56.50
2019-05-18T08:18:37.502Z,56.40
2019-05-18T08:21:07.694Z,56.30
2019-05-18T08:23:37.922Z,56.30
2019-05-18T08:26:08.120Z,56.10
2019-05-18T08:28:39.427Z,56.10
2019-05-18T08:31:09.682Z,56.00
2019-05-18T08:33:39.910Z,55.90
2019-05-18T08:36:10.123Z,55.90
2019-05-18T08:38:40.427Z,56.00
2019-05-18T08:41:10.634Z,56.00
2019-05-18T08:43:40.867Z,56.00
2019-05-18T08:46:11.157Z,56.00
2019-05-18T08:48:41.454Z,55.90
2019-05-18T08:51:11.700Z,55.90
2019-05-18T08:53:44.067Z,55.70
2019-05-18T08:56:14.024Z,55.50
2019-05-18T08:58:44.254Z,55.60
2019-05-18T09:01:14.450Z,55.50
2019-05-18T09:03:45.928Z,55.30
2019-05-18T09:06:16.202Z,55.20
2019-05-18T09:08:46.840Z,55.40
2019-05-18T09:11:17.046Z,55.20
2019-05-18T09:13:47.284Z,55.00
2019-05-18T09:16:17.535Z,55.10
2019-05-18T09:18:47.814Z,55.20
2019-05-18T09:21:18.075Z,55.30
2019-05-18T09:23:48.359Z,55.00
2019-05-18T09:26:18.661Z,54.70
2019-05-18T09:28:49.001Z,54.80
2019-05-18T09:31:19.199Z,54.80
2019-05-18T09:33:50.496Z,54.80
2019-05-18T09:36:20.738Z,54.70
2019-05-18T09:38:50.940Z,54.80
2019-05-18T09:41:21.164Z,54.70
2019-05-18T09:43:51.445Z,54.50
2019-05-18T09:46:21.649Z,54.30
2019-05-18T09:48:51.874Z,53.40
2019-05-18T09:51:22.081Z,53.90
2019-05-18T09:53:52.301Z,54.00
2019-05-18T09:56:22.576Z,54.10
2019-05-18T09:58:52.784Z,54.20
2019-05-18T10:01:23.073Z,54.30
2019-05-18T10:03:53.312Z,53.90
2019-05-18T10:06:23.509Z,53.80
2019-05-18T10:08:53.806Z,54.00
2019-05-18T10:11:24.109Z,54.10
2019-05-18T10:13:54.446Z,54.00
2019-05-18T10:16:24.663Z,54.00
2019-05-18T10:18:54.956Z,53.60
2019-05-18T10:21:25.197Z,53.50
2019-05-18T10:23:55.754Z,53.60
2019-05-18T10:26:25.978Z,54.10
2019-05-18T10:28:56.305Z,53.30
2019-05-18T10:31:26.510Z,53.10
2019-05-18T10:33:56.809Z,53.40
2019-05-18T10:36:27.097Z,53.30
2019-05-18T10:38:57.374Z,53.90
2019-05-18T10:41:27.597Z,53.30
2019-05-18T10:43:57.827Z,53.60
2019-05-18T10:46:28.047Z,54.00
2019-05-18T10:48:58.253Z,54.00
2019-05-18T10:51:28.471Z,53.90
2019-05-18T10:53:58.672Z,53.70
2019-05-18T10:56:31.229Z,53.70
2019-05-18T10:59:00.912Z,54.00
2019-05-18T11:01:31.124Z,53.80
2019-05-18T11:04:01.404Z,53.70
2019-05-18T11:06:31.637Z,53.70
2019-05-18T11:09:04.163Z,53.70
2019-05-18T11:11:34.440Z,53.50
2019-05-18T11:14:04.647Z,53.40
2019-05-18T11:16:34.859Z,53.30
2019-05-18T11:19:05.075Z,53.40
2019-05-18T11:21:35.271Z,53.20
2019-05-18T11:24:05.490Z,53.20
2019-05-18T11:26:36.798Z,53.10
2019-05-18T11:29:06.996Z,53.20
2019-05-18T11:31:37.238Z,53.40
2019-05-18T11:34:07.426Z,53.90
2019-05-18T11:36:37.628Z,54.00
2019-05-18T11:39:07.910Z,54.20
2019-05-18T11:41:38.256Z,54.50
2019-05-18T11:44:10.814Z,54.80
2019-05-18T11:46:40.343Z,55.10
2019-05-18T11:49:10.569Z,55.20
2019-05-18T11:51:40.873Z,55.80
2019-05-18T11:54:11.073Z,56.10
2019-05-18T11:56:41.388Z,56.30
2019-05-18T11:59:11.575Z,56.40
2019-05-18T12:01:41.808Z,56.90
2019-05-18T12:04:12.011Z,56.60
2019-05-18T12:06:42.245Z,57.00
2019-05-18T12:09:12.444Z,57.30
2019-05-18T12:11:42.668Z,57.10
2019-05-18T12:14:12.917Z,57.30
2019-05-18T12:16:43.130Z,57.10
2019-05-18T12:19:13.331Z,57.00
2019-05-18T12:21:43.561Z,57.00
2019-05-18T12:24:15.831Z,56.80
2019-05-18T12:26:45.666Z,57.30
2019-05-18T12:29:15.859Z,58.50
2019-05-18T12:31:46.085Z,58.00
2019-05-18T12:34:17.354Z,58.10
2019-05-18T12:36:47.564Z,58.40
2019-05-18T12:39:17.837Z,58.30
2019-05-18T12:41:48.133Z,58.70
2019-05-18T12:44:18.390Z,58.70
2019-05-18T12:46:48.722Z,58.90
2019-05-18T12:49:18.904Z,58.80
2019-05-18T12:51:49.122Z,59.20
2019-05-18T12:54:29.037Z,59.10
2019-05-18T12:56:51.366Z,59.10
2019-05-18T12:59:21.603Z,58.90
2019-05-18T13:01:51.789Z,58.70
2019-05-18T13:04:22.007Z,58.80
2019-05-18T13:06:53.289Z,58.90
2019-05-18T13:09:23.824Z,59.00
2019-05-18T13:11:55.221Z,59.30
2019-05-18T13:14:25.419Z,59.50
2019-05-18T13:16:55.618Z,59.50
2019-05-18T13:19:25.837Z,59.90
2019-05-18T13:21:56.088Z,60.50
2019-05-18T13:24:26.340Z,60.50
2019-05-18T13:26:57.601Z,59.40
2019-05-18T13:29:27.813Z,59.30
2019-05-18T13:31:58.000Z,59.40
2019-05-18T13:34:28.268Z,59.40
2019-05-18T13:36:58.483Z,59.30
2019-05-18T13:39:28.693Z,59.40
2019-05-18T13:41:58.887Z,59.40
2019-05-18T13:44:30.070Z,59.30
2019-05-18T13:47:00.258Z,59.00
2019-05-18T13:49:30.475Z,58.80
2019-05-18T13:52:00.679Z,58.80
2019-05-18T13:54:30.971Z,59.30
2019-05-18T13:57:01.249Z,59.50
2019-05-18T13:59:31.478Z,59.50
2019-05-18T14:02:01.718Z,59.20
2019-05-18T14:04:31.997Z,59.30
2019-05-18T14:07:02.208Z,59.60
2019-05-18T14:09:32.433Z,59.40
2019-05-18T14:12:02.664Z,59.20
2019-05-18T14:14:32.884Z,59.40
2019-05-18T14:17:03.202Z,59.40
2019-05-18T14:19:33.432Z,59.40
2019-05-18T14:22:03.690Z,59.60
2019-05-18T14:24:33.944Z,59.70
2019-05-18T14:27:04.134Z,59.80
2019-05-18T14:29:34.343Z,59.70
2019-05-18T14:32:04.547Z,59.90
2019-05-18T14:34:34.843Z,60.00
2019-05-18T14:37:05.048Z,59.80
2019-05-18T14:39:35.289Z,60.10
2019-05-18T14:42:05.491Z,60.00
2019-05-18T14:44:35.788Z,59.80
2019-05-18T14:47:06.013Z,60.00
2019-05-18T14:49:36.315Z,59.80
2019-05-18T14:52:06.683Z,59.70
2019-05-18T14:54:36.863Z,60.10
2019-05-18T14:57:07.094Z,60.30
2019-05-18T14:59:37.306Z,60.40
2019-05-18T15:02:08.610Z,60.40
2019-05-18T15:04:38.807Z,60.30
2019-05-18T15:07:09.070Z,60.50
2019-05-18T15:09:39.281Z,60.30
2019-05-18T15:12:09.570Z,60.60
2019-05-18T15:14:39.773Z,61.20
2019-05-18T15:17:10.019Z,61.10
2019-05-18T15:19:40.209Z,60.80
2019-05-18T15:22:10.430Z,60.90
2019-05-18T15:24:40.631Z,61.00
2019-05-18T15:27:10.865Z,60.70
2019-05-18T15:29:41.204Z,60.70
2019-05-18T15:32:11.412Z,60.60
2019-05-18T15:34:41.620Z,60.80
2019-05-18T15:37:11.851Z,60.70
2019-05-18T15:39:42.038Z,60.80
2019-05-18T15:42:12.260Z,61.00
2019-05-18T15:44:42.465Z,61.60
2019-05-18T15:47:12.706Z,61.10
2019-05-18T15:49:42.941Z,61.00
2019-05-18T15:52:13.149Z,61.00
2019-05-18T15:54:43.357Z,61.00
2019-05-18T15:57:13.749Z,60.80
2019-05-18T15:59:43.942Z,61.20
2019-05-18T16:02:14.164Z,61.80
2019-05-18T16:04:44.387Z,62.10
2019-05-18T16:07:14.680Z,62.00
2019-05-18T16:09:44.967Z,62.00
2019-05-18T16:12:15.165Z,61.90
2019-05-18T16:14:45.434Z,61.50
2019-05-18T16:17:15.653Z,61.20
2019-05-18T16:19:46.864Z,60.70
2019-05-18T16:22:17.109Z,60.40
2019-05-18T16:24:47.393Z,59.90
2019-05-18T16:27:17.716Z,59.80
2019-05-18T16:29:48.043Z,59.70
2019-05-18T16:32:18.264Z,59.60
2019-05-18T16:34:48.468Z,59.40
2019-05-18T16:37:18.691Z,59.30
2019-05-18T16:39:48.953Z,59.20
2019-05-18T16:42:19.275Z,59.10
